This is the latest recevied weather packets stored in our database for station/object IW1EYZ-3. If no packets are shown the sender has not sent any weather packets the latest 10 day(s).
| Time | Temp. | Humidity | Pressure | Rain* | Wind** | Luminosity | Snow |
|---|---|---|---|---|---|---|---|
| 1777289345 | 27.78° C | 33% | 1020.8 hPa | - | - | - | - |
| 1777288145 | 27.22° C | 34% | 1020.9 hPa | - | - | - | - |
| 1777286944 | 25.56° C | 35% | 1021.1 hPa | - | - | - | - |
| 1777285744 | 25.56° C | 39% | 1021.2 hPa | - | - | - | - |
| 1777284543 | 23.89° C | 45% | 1021.3 hPa | - | - | - | - |
| 1777283343 | 22.22° C | 47% | 1021.4 hPa | - | - | - | - |
| 1777282143 | 22.22° C | 49% | 1021.6 hPa | - | - | - | - |
| 1777280943 | 21.67° C | 51% | 1021.6 hPa | - | - | - | - |
| 1777279742 | 18.33° C | 63% | 1021.6 hPa | - | - | - | - |
| 1777278542 | 16.67° C | 68% | 1021.6 hPa | - | - | - | - |
| 1777277342 | 16.67° C | 72% | 1021.5 hPa | - | - | - | - |
| 1777276141 | 16.11° C | 75% | 1021.5 hPa | - | - | - | - |
| 1777274941 | 15.56° C | 76% | 1021.4 hPa | - | - | - | - |
| 1777273741 | 15.56° C | 76% | 1021.4 hPa | - | - | - | - |
| 1777272540 | 15° C | 75% | 1021.4 hPa | - | - | - | - |
| 1777271340 | 15° C | 77% | 1021.4 hPa | - | - | - | - |
| 1777270139 | 15° C | 78% | 1021.4 hPa | - | - | - | - |
| 1777268939 | 14.44° C | 81% | 1021.3 hPa | - | - | - | - |
| 1777267739 | 13.89° C | 83% | 1021.1 hPa | - | - | - | - |
| 1777266539 | 13.89° C | 85% | 1020.9 hPa | - | - | - | - |
| 1777265338 | 13.89° C | 86% | 1020.9 hPa | - | - | - | - |
| 1777264138 | 13.33° C | 86% | 1020.8 hPa | - | - | - | - |
| 1777262938 | 13.33° C | 85% | 1020.8 hPa | - | - | - | - |
| 1777261737 | 13.33° C | 84% | 1020.6 hPa | - | - | - | - |
| 1777260537 | 13.33° C | 85% | 1020.6 hPa | - | - | - | - |
* Rain since midnight (hover to see other rain measurements)
** Current wind speed in m/s (hover to see current wind gust speed)